sensor_id;sensor_type;location;lat;lon;timestamp;temperature;humidity
72762;SHT30;60886;55.034;73.150;2022-11-23T00:01:29;-18.56;68.31
72762;SHT30;60886;55.034;73.150;2022-11-23T00:03:57;-18.51;68.53
72762;SHT30;60886;55.034;73.150;2022-11-23T00:06:29;-18.42;68.30
72762;SHT30;60886;55.034;73.150;2022-11-23T00:08:57;-18.36;68.23
72762;SHT30;60886;55.034;73.150;2022-11-23T00:11:25;-18.33;67.90
72762;SHT30;60886;55.034;73.150;2022-11-23T00:14:01;-18.39;67.76
72762;SHT30;60886;55.034;73.150;2022-11-23T00:16:37;-18.36;67.92
72762;SHT30;60886;55.034;73.150;2022-11-23T00:19:04;-18.33;67.81
72762;SHT30;60886;55.034;73.150;2022-11-23T00:21:32;-18.39;68.06
72762;SHT30;60886;55.034;73.150;2022-11-23T00:24:01;-18.36;68.00
72762;SHT30;60886;55.034;73.150;2022-11-23T00:26:38;-18.42;68.18
72762;SHT30;60886;55.034;73.150;2022-11-23T00:29:12;-18.42;68.47
72762;SHT30;60886;55.034;73.150;2022-11-23T00:31:40;-18.46;68.33
72762;SHT30;60886;55.034;73.150;2022-11-23T00:34:06;-18.49;68.40
72762;SHT30;60886;55.034;73.150;2022-11-23T00:36:32;-18.45;68.69
72762;SHT30;60886;55.034;73.150;2022-11-23T00:39:05;-18.42;68.26
72762;SHT30;60886;55.034;73.150;2022-11-23T00:41:35;-18.45;68.24
72762;SHT30;60886;55.034;73.150;2022-11-23T00:44:03;-18.53;67.97
72762;SHT30;60886;55.034;73.150;2022-11-23T00:46:31;-18.57;68.10
72762;SHT30;60886;55.034;73.150;2022-11-23T00:48:57;-18.52;68.18
72762;SHT30;60886;55.034;73.150;2022-11-23T00:51:27;-18.57;68.02
72762;SHT30;60886;55.034;73.150;2022-11-23T00:53:57;-18.51;68.06
72762;SHT30;60886;55.034;73.150;2022-11-23T00:56:30;-18.66;67.88
72762;SHT30;60886;55.034;73.150;2022-11-23T00:58:58;-18.77;68.10
72762;SHT30;60886;55.034;73.150;2022-11-23T01:01:30;-18.73;68.77
72762;SHT30;60886;55.034;73.150;2022-11-23T01:04:00;-18.70;68.31
72762;SHT30;60886;55.034;73.150;2022-11-23T01:06:37;-18.67;68.45
72762;SHT30;60886;55.034;73.150;2022-11-23T01:09:07;-18.67;68.12
72762;SHT30;60886;55.034;73.150;2022-11-23T01:11:34;-18.75;68.14
72762;SHT30;60886;55.034;73.150;2022-11-23T01:14:01;-18.76;67.90
72762;SHT30;60886;55.034;73.150;2022-11-23T01:16:30;-18.84;68.21
72762;SHT30;60886;55.034;73.150;2022-11-23T01:19:04;-18.84;68.29
72762;SHT30;60886;55.034;73.150;2022-11-23T01:21:32;-18.81;68.14
72762;SHT30;60886;55.034;73.150;2022-11-23T01:24:10;-18.80;67.77
72762;SHT30;60886;55.034;73.150;2022-11-23T01:26:43;-18.79;68.40
72762;SHT30;60886;55.034;73.150;2022-11-23T01:29:10;-18.88;68.28
72762;SHT30;60886;55.034;73.150;2022-11-23T01:31:38;-18.96;68.47
72762;SHT30;60886;55.034;73.150;2022-11-23T01:34:06;-18.94;68.91
72762;SHT30;60886;55.034;73.150;2022-11-23T01:36:39;-18.98;69.07
72762;SHT30;60886;55.034;73.150;2022-11-23T01:39:06;-19.01;69.02
72762;SHT30;60886;55.034;73.150;2022-11-23T01:41:39;-19.10;69.34
72762;SHT30;60886;55.034;73.150;2022-11-23T01:44:31;-19.14;69.30
72762;SHT30;60886;55.034;73.150;2022-11-23T01:46:59;-19.14;69.47
72762;SHT30;60886;55.034;73.150;2022-11-23T01:49:37;-19.12;69.76
72762;SHT30;60886;55.034;73.150;2022-11-23T01:52:11;-19.15;69.41
72762;SHT30;60886;55.034;73.150;2022-11-23T01:54:51;-19.17;69.20
72762;SHT30;60886;55.034;73.150;2022-11-23T01:57:28;-19.31;68.93
72762;SHT30;60886;55.034;73.150;2022-11-23T01:59:56;-19.27;69.00
72762;SHT30;60886;55.034;73.150;2022-11-23T02:02:24;-19.30;68.56
72762;SHT30;60886;55.034;73.150;2022-11-23T02:04:52;-19.25;68.47
72762;SHT30;60886;55.034;73.150;2022-11-23T02:07:20;-19.38;68.26
72762;SHT30;60886;55.034;73.150;2022-11-23T02:09:50;-19.45;68.44
72762;SHT30;60886;55.034;73.150;2022-11-23T02:12:22;-19.30;68.69
72762;SHT30;60886;55.034;73.150;2022-11-23T02:14:50;-19.32;68.01
72762;SHT30;60886;55.034;73.150;2022-11-23T02:17:18;-19.32;67.86
72762;SHT30;60886;55.034;73.150;2022-11-23T02:24:54;-19.34;67.78
72762;SHT30;60886;55.034;73.150;2022-11-23T02:27:21;-19.34;67.66
72762;SHT30;60886;55.034;73.150;2022-11-23T02:29:54;-19.41;68.14
72762;SHT30;60886;55.034;73.150;2022-11-23T02:32:23;-19.50;68.70
72762;SHT30;60886;55.034;73.150;2022-11-23T02:34:55;-19.52;69.22
72762;SHT30;60886;55.034;73.150;2022-11-23T02:37:24;-19.57;69.24
72762;SHT30;60886;55.034;73.150;2022-11-23T02:39:53;-19.57;69.72
72762;SHT30;60886;55.034;73.150;2022-11-23T02:42:22;-19.54;69.60
72762;SHT30;60886;55.034;73.150;2022-11-23T02:45:13;-19.54;69.61
72762;SHT30;60886;55.034;73.150;2022-11-23T02:47:46;-19.57;69.32
72762;SHT30;60886;55.034;73.150;2022-11-23T02:50:14;-19.61;69.43
72762;SHT30;60886;55.034;73.150;2022-11-23T02:52:42;-19.66;69.16
72762;SHT30;60886;55.034;73.150;2022-11-23T02:55:19;-19.66;69.43
72762;SHT30;60886;55.034;73.150;2022-11-23T02:57:50;-19.68;69.22
72762;SHT30;60886;55.034;73.150;2022-11-23T03:00:17;-19.66;69.75
72762;SHT30;60886;55.034;73.150;2022-11-23T03:02:45;-19.63;69.61
72762;SHT30;60886;55.034;73.150;2022-11-23T03:05:21;-19.69;69.29
72762;SHT30;60886;55.034;73.150;2022-11-23T03:07:50;-19.68;69.71
72762;SHT30;60886;55.034;73.150;2022-11-23T03:10:23;-19.69;69.45
72762;SHT30;60886;55.034;73.150;2022-11-23T03:12:58;-19.65;69.70
72762;SHT30;60886;55.034;73.150;2022-11-23T03:15:27;-19.72;68.67
72762;SHT30;60886;55.034;73.150;2022-11-23T03:17:56;-19.79;68.74
72762;SHT30;60886;55.034;73.150;2022-11-23T03:20:25;-19.63;68.27
72762;SHT30;60886;55.034;73.150;2022-11-23T03:22:52;-19.58;67.82
72762;SHT30;60886;55.034;73.150;2022-11-23T03:25:27;-19.61;67.43
72762;SHT30;60886;55.034;73.150;2022-11-23T03:27:55;-19.59;67.42
72762;SHT30;60886;55.034;73.150;2022-11-23T03:30:22;-19.65;67.12
72762;SHT30;60886;55.034;73.150;2022-11-23T03:32:49;-19.66;67.72
72762;SHT30;60886;55.034;73.150;2022-11-23T03:35:17;-19.59;67.75
72762;SHT30;60886;55.034;73.150;2022-11-23T03:38:03;-19.66;68.08
72762;SHT30;60886;55.034;73.150;2022-11-23T03:40:31;-19.61;68.15
72762;SHT30;60886;55.034;73.150;2022-11-23T03:43:12;-19.61;67.61
72762;SHT30;60886;55.034;73.150;2022-11-23T03:45:41;-19.58;67.88
72762;SHT30;60886;55.034;73.150;2022-11-23T03:48:09;-19.48;67.78
72762;SHT30;60886;55.034;73.150;2022-11-23T03:50:35;-19.39;67.49
72762;SHT30;60886;55.034;73.150;2022-11-23T03:53:02;-19.32;67.31
72762;SHT30;60886;55.034;73.150;2022-11-23T03:55:28;-19.22;67.43
72762;SHT30;60886;55.034;73.150;2022-11-23T03:57:55;-19.21;67.27
72762;SHT30;60886;55.034;73.150;2022-11-23T04:00:27;-19.21;67.25
72762;SHT30;60886;55.034;73.150;2022-11-23T04:02:59;-19.17;67.54
72762;SHT30;60886;55.034;73.150;2022-11-23T04:05:56;-19.18;68.00
72762;SHT30;60886;55.034;73.150;2022-11-23T04:08:52;-19.10;68.11
72762;SHT30;60886;55.034;73.150;2022-11-23T04:11:30;-19.06;68.14
72762;SHT30;60886;55.034;73.150;2022-11-23T04:13:56;-19.06;68.30
72762;SHT30;60886;55.034;73.150;2022-11-23T04:16:23;-18.94;68.36
72762;SHT30;60886;55.034;73.150;2022-11-23T04:18:49;-18.90;67.93
72762;SHT30;60886;55.034;73.150;2022-11-23T04:21:21;-18.75;67.89
72762;SHT30;60886;55.034;73.150;2022-11-23T04:23:47;-18.72;67.74
72762;SHT30;60886;55.034;73.150;2022-11-23T04:26:15;-18.62;67.74
72762;SHT30;60886;55.034;73.150;2022-11-23T04:28:45;-18.49;67.53
72762;SHT30;60886;55.034;73.150;2022-11-23T04:31:12;-18.46;67.40
72762;SHT30;60886;55.034;73.150;2022-11-23T04:34:01;-18.45;67.33
72762;SHT30;60886;55.034;73.150;2022-11-23T04:36:29;-18.48;67.45
72762;SHT30;60886;55.034;73.150;2022-11-23T04:39:09;-18.49;67.77
72762;SHT30;60886;55.034;73.150;2022-11-23T04:41:46;-18.43;67.82
72762;SHT30;60886;55.034;73.150;2022-11-23T04:44:23;-18.49;67.97
72762;SHT30;60886;55.034;73.150;2022-11-23T04:47:06;-18.42;68.17
72762;SHT30;60886;55.034;73.150;2022-11-23T04:49:41;-18.38;67.90
72762;SHT30;60886;55.034;73.150;2022-11-23T04:52:17;-18.36;67.76
72762;SHT30;60886;55.034;73.150;2022-11-23T04:54:49;-18.28;67.68
72762;SHT30;60886;55.034;73.150;2022-11-23T04:57:20;-18.29;67.40
72762;SHT30;60886;55.034;73.150;2022-11-23T05:00:00;-18.25;67.34
72762;SHT30;60886;55.034;73.150;2022-11-23T05:02:28;-18.24;67.25
72762;SHT30;60886;55.034;73.150;2022-11-23T05:05:28;-18.15;67.14
72762;SHT30;60886;55.034;73.150;2022-11-23T05:07:56;-18.02;67.40
72762;SHT30;60886;55.034;73.150;2022-11-23T05:10:31;-18.04;67.02
72762;SHT30;60886;55.034;73.150;2022-11-23T05:12:58;-18.11;66.93
72762;SHT30;60886;55.034;73.150;2022-11-23T05:15:25;-18.00;66.84
72762;SHT30;60886;55.034;73.150;2022-11-23T05:18:05;-18.00;66.55
72762;SHT30;60886;55.034;73.150;2022-11-23T05:20:33;-17.94;66.53
72762;SHT30;60886;55.034;73.150;2022-11-23T05:23:10;-18.02;66.29
72762;SHT30;60886;55.034;73.150;2022-11-23T05:25:40;-17.93;66.86
72762;SHT30;60886;55.034;73.150;2022-11-23T05:28:20;-18.00;66.30
72762;SHT30;60886;55.034;73.150;2022-11-23T05:30:48;-17.94;66.64
72762;SHT30;60886;55.034;73.150;2022-11-23T05:33:15;-17.84;66.88
72762;SHT30;60886;55.034;73.150;2022-11-23T05:35:43;-17.67;66.41
72762;SHT30;60886;55.034;73.150;2022-11-23T05:38:10;-17.69;65.68
72762;SHT30;60886;55.034;73.150;2022-11-23T05:40:36;-17.70;65.74
72762;SHT30;60886;55.034;73.150;2022-11-23T05:43:04;-17.87;65.84
72762;SHT30;60886;55.034;73.150;2022-11-23T05:45:32;-17.87;66.58
72762;SHT30;60886;55.034;73.150;2022-11-23T05:48:01;-17.87;66.62
72762;SHT30;60886;55.034;73.150;2022-11-23T05:50:50;-17.77;66.18
72762;SHT30;60886;55.034;73.150;2022-11-23T05:53:31;-17.69;65.94
72762;SHT30;60886;55.034;73.150;2022-11-23T05:56:07;-17.67;65.94
72762;SHT30;60886;55.034;73.150;2022-11-23T05:58:40;-17.63;65.66
72762;SHT30;60886;55.034;73.150;2022-11-23T06:01:19;-17.52;65.64
72762;SHT30;60886;55.034;73.150;2022-11-23T06:03:45;-17.60;65.20
72762;SHT30;60886;55.034;73.150;2022-11-23T06:06:12;-17.53;65.56
72762;SHT30;60886;55.034;73.150;2022-11-23T06:08:51;-17.67;65.36
72762;SHT30;60886;55.034;73.150;2022-11-23T06:11:20;-17.55;65.70
72762;SHT30;60886;55.034;73.150;2022-11-23T06:13:47;-17.57;65.71
72762;SHT30;60886;55.034;73.150;2022-11-23T06:16:25;-17.49;65.56
72762;SHT30;60886;55.034;73.150;2022-11-23T06:19:11;-17.52;65.45
72762;SHT30;60886;55.034;73.150;2022-11-23T06:21:39;-17.56;65.78
72762;SHT30;60886;55.034;73.150;2022-11-23T06:24:07;-17.57;65.69
72762;SHT30;60886;55.034;73.150;2022-11-23T06:26:34;-17.66;65.69
72762;SHT30;60886;55.034;73.150;2022-11-23T06:29:00;-17.56;66.14
72762;SHT30;60886;55.034;73.150;2022-11-23T06:31:27;-17.43;66.02
72762;SHT30;60886;55.034;73.150;2022-11-23T06:33:54;-17.40;65.54
72762;SHT30;60886;55.034;73.150;2022-11-23T06:36:22;-17.39;65.40
72762;SHT30;60886;55.034;73.150;2022-11-23T06:38:49;-17.39;65.44
72762;SHT30;60886;55.034;73.150;2022-11-23T06:41:24;-17.28;65.92
72762;SHT30;60886;55.034;73.150;2022-11-23T06:43:50;-17.38;65.00
72762;SHT30;60886;55.034;73.150;2022-11-23T06:46:33;-17.29;65.28
72762;SHT30;60886;55.034;73.150;2022-11-23T06:49:00;-17.28;65.17
72762;SHT30;60886;55.034;73.150;2022-11-23T06:51:28;-17.21;65.54
72762;SHT30;60886;55.034;73.150;2022-11-23T06:53:54;-17.23;65.39
72762;SHT30;60886;55.034;73.150;2022-11-23T06:56:23;-17.15;65.17
72762;SHT30;60886;55.034;73.150;2022-11-23T06:58:50;-17.12;64.90
72762;SHT30;60886;55.034;73.150;2022-11-23T07:01:21;-17.10;65.10
72762;SHT30;60886;55.034;73.150;2022-11-23T07:03:54;-17.08;64.65
72762;SHT30;60886;55.034;73.150;2022-11-23T07:06:27;-17.14;64.76
72762;SHT30;60886;55.034;73.150;2022-11-23T07:08:57;-17.11;64.92
72762;SHT30;60886;55.034;73.150;2022-11-23T07:12:12;-17.19;64.86
72762;SHT30;60886;55.034;73.150;2022-11-23T07:14:38;-17.19;65.43
72762;SHT30;60886;55.034;73.150;2022-11-23T07:17:04;-17.11;65.65
72762;SHT30;60886;55.034;73.150;2022-11-23T07:19:33;-17.04;65.37
72762;SHT30;60886;55.034;73.150;2022-11-23T07:22:01;-17.02;65.02
72762;SHT30;60886;55.034;73.150;2022-11-23T07:24:30;-16.98;65.45
72762;SHT30;60886;55.034;73.150;2022-11-23T07:26:57;-16.84;64.60
72762;SHT30;60886;55.034;73.150;2022-11-23T07:29:23;-16.84;64.40
72762;SHT30;60886;55.034;73.150;2022-11-23T07:31:50;-16.92;63.80
72762;SHT30;60886;55.034;73.150;2022-11-23T07:34:18;-16.90;64.36
72762;SHT30;60886;55.034;73.150;2022-11-23T07:36:49;-16.95;64.18
72762;SHT30;60886;55.034;73.150;2022-11-23T07:39:16;-17.07;64.47
72762;SHT30;60886;55.034;73.150;2022-11-23T07:41:44;-17.10;64.79
72762;SHT30;60886;55.034;73.150;2022-11-23T07:44:27;-17.04;64.73
72762;SHT30;60886;55.034;73.150;2022-11-23T07:46:55;-16.97;64.80
72762;SHT30;60886;55.034;73.150;2022-11-23T07:49:21;-16.92;64.48
72762;SHT30;60886;55.034;73.150;2022-11-23T07:51:48;-16.88;64.60
72762;SHT30;60886;55.034;73.150;2022-11-23T07:54:18;-16.90;64.46
72762;SHT30;60886;55.034;73.150;2022-11-23T07:56:49;-16.80;64.74
72762;SHT30;60886;55.034;73.150;2022-11-23T07:59:25;-16.85;64.41
72762;SHT30;60886;55.034;73.150;2022-11-23T08:01:52;-16.88;64.47
72762;SHT30;60886;55.034;73.150;2022-11-23T08:04:19;-16.83;64.28
72762;SHT30;60886;55.034;73.150;2022-11-23T08:06:45;-16.84;64.55
72762;SHT30;60886;55.034;73.150;2022-11-23T08:09:12;-16.68;64.42
72762;SHT30;60886;55.034;73.150;2022-11-23T08:11:39;-16.78;63.94
72762;SHT30;60886;55.034;73.150;2022-11-23T08:14:05;-16.81;64.29
72762;SHT30;60886;55.034;73.150;2022-11-23T08:16:31;-16.76;64.48
72762;SHT30;60886;55.034;73.150;2022-11-23T08:19:04;-16.73;64.17
72762;SHT30;60886;55.034;73.150;2022-11-23T08:21:32;-16.65;64.23
72762;SHT30;60886;55.034;73.150;2022-11-23T08:23:58;-16.65;64.21
72762;SHT30;60886;55.034;73.150;2022-11-23T08:26:24;-16.64;64.27
72762;SHT30;60886;55.034;73.150;2022-11-23T08:28:52;-16.67;64.28
72762;SHT30;60886;55.034;73.150;2022-11-23T08:31:19;-16.57;64.22
72762;SHT30;60886;55.034;73.150;2022-11-23T08:33:45;-16.58;64.20
72762;SHT30;60886;55.034;73.150;2022-11-23T08:36:13;-16.48;64.14
72762;SHT30;60886;55.034;73.150;2022-11-23T08:38:39;-16.40;63.62
72762;SHT30;60886;55.034;73.150;2022-11-23T08:41:07;-16.40;63.47
72762;SHT30;60886;55.034;73.150;2022-11-23T08:43:34;-16.39;63.48
72762;SHT30;60886;55.034;73.150;2022-11-23T08:46:01;-16.29;63.28
72762;SHT30;60886;55.034;73.150;2022-11-23T08:48:27;-16.34;63.09
72762;SHT30;60886;55.034;73.150;2022-11-23T08:50:57;-16.33;63.08
72762;SHT30;60886;55.034;73.150;2022-11-23T08:53:24;-16.37;63.19
72762;SHT30;60886;55.034;73.150;2022-11-23T08:56:02;-16.37;63.38
72762;SHT30;60886;55.034;73.150;2022-11-23T08:58:31;-16.39;63.69
72762;SHT30;60886;55.034;73.150;2022-11-23T09:00:57;-16.39;63.97
72762;SHT30;60886;55.034;73.150;2022-11-23T09:03:29;-16.25;63.71
72762;SHT30;60886;55.034;73.150;2022-11-23T09:05:58;-16.27;63.37
72762;SHT30;60886;55.034;73.150;2022-11-23T09:08:27;-16.17;63.21
72762;SHT30;60886;55.034;73.150;2022-11-23T09:10:59;-16.22;63.08
72762;SHT30;60886;55.034;73.150;2022-11-23T09:13:26;-16.17;63.09
72762;SHT30;60886;55.034;73.150;2022-11-23T09:15:58;-16.15;62.94
72762;SHT30;60886;55.034;73.150;2022-11-23T09:18:31;-16.22;62.74
72762;SHT30;60886;55.034;73.150;2022-11-23T09:21:02;-16.23;62.97
72762;SHT30;60886;55.034;73.150;2022-11-23T09:23:29;-16.22;63.00
72762;SHT30;60886;55.034;73.150;2022-11-23T09:26:01;-16.25;62.85
72762;SHT30;60886;55.034;73.150;2022-11-23T09:28:33;-16.23;63.05
72762;SHT30;60886;55.034;73.150;2022-11-23T09:31:45;-16.25;63.11
72762;SHT30;60886;55.034;73.150;2022-11-23T09:34:12;-16.26;63.13
72762;SHT30;60886;55.034;73.150;2022-11-23T09:36:39;-16.26;63.09
72762;SHT30;60886;55.034;73.150;2022-11-23T09:39:15;-16.36;63.12
72762;SHT30;60886;55.034;73.150;2022-11-23T09:42:12;-16.40;63.57
72762;SHT30;60886;55.034;73.150;2022-11-23T09:50:49;-16.23;63.37
72762;SHT30;60886;55.034;73.150;2022-11-23T09:53:23;-16.33;63.15
72762;SHT30;60886;55.034;73.150;2022-11-23T09:56:00;-16.44;63.35
72762;SHT30;60886;55.034;73.150;2022-11-23T09:58:31;-16.41;63.86
72762;SHT30;60886;55.034;73.150;2022-11-23T10:01:03;-16.48;63.60
72762;SHT30;60886;55.034;73.150;2022-11-23T10:03:37;-16.57;63.79
72762;SHT30;60886;55.034;73.150;2022-11-23T10:06:27;-16.60;64.06
72762;SHT30;60886;55.034;73.150;2022-11-23T10:17:44;-16.63;63.73
72762;SHT30;60886;55.034;73.150;2022-11-23T10:20:36;-16.64;63.77
72762;SHT30;60886;55.034;73.150;2022-11-23T10:23:40;-16.70;64.02
72762;SHT30;60886;55.034;73.150;2022-11-23T10:26:16;-16.74;64.45
72762;SHT30;60886;55.034;73.150;2022-11-23T10:28:46;-16.73;64.14
72762;SHT30;60886;55.034;73.150;2022-11-23T10:31:15;-16.73;64.22
72762;SHT30;60886;55.034;73.150;2022-11-23T10:34:09;-16.76;64.32
72762;SHT30;60886;55.034;73.150;2022-11-23T10:36:37;-16.74;64.40
72762;SHT30;60886;55.034;73.150;2022-11-23T10:39:26;-16.77;64.64
72762;SHT30;60886;55.034;73.150;2022-11-23T10:41:58;-16.73;64.64
72762;SHT30;60886;55.034;73.150;2022-11-23T10:44:34;-16.71;64.73
72762;SHT30;60886;55.034;73.150;2022-11-23T10:47:04;-16.78;65.27
72762;SHT30;60886;55.034;73.150;2022-11-23T10:49:32;-16.85;66.08
72762;SHT30;60886;55.034;73.150;2022-11-23T10:52:29;-16.85;65.69
72762;SHT30;60886;55.034;73.150;2022-11-23T10:55:13;-16.88;65.60
72762;SHT30;60886;55.034;73.150;2022-11-23T10:57:50;-16.91;65.71
72762;SHT30;60886;55.034;73.150;2022-11-23T11:00:28;-17.01;66.09
72762;SHT30;60886;55.034;73.150;2022-11-23T11:02:57;-17.07;66.20
72762;SHT30;60886;55.034;73.150;2022-11-23T11:05:32;-17.08;66.50
72762;SHT30;60886;55.034;73.150;2022-11-23T11:08:18;-17.05;66.21
72762;SHT30;60886;55.034;73.150;2022-11-23T11:10:56;-17.04;66.19
72762;SHT30;60886;55.034;73.150;2022-11-23T11:13:43;-17.07;66.04
72762;SHT30;60886;55.034;73.150;2022-11-23T11:16:24;-17.10;66.01
72762;SHT30;60886;55.034;73.150;2022-11-23T11:18:51;-17.11;66.02
72762;SHT30;60886;55.034;73.150;2022-11-23T11:21:20;-17.18;66.28
72762;SHT30;60886;55.034;73.150;2022-11-23T11:26:29;-17.21;67.06
72762;SHT30;60886;55.034;73.150;2022-11-23T11:29:05;-17.25;68.02
72762;SHT30;60886;55.034;73.150;2022-11-23T11:32:01;-17.29;68.60
72762;SHT30;60886;55.034;73.150;2022-11-23T11:40:16;-17.46;68.94
72762;SHT30;60886;55.034;73.150;2022-11-23T11:45:31;-17.57;68.23
72762;SHT30;60886;55.034;73.150;2022-11-23T11:48:12;-17.59;68.41
72762;SHT30;60886;55.034;73.150;2022-11-23T11:53:49;-17.57;69.02
72762;SHT30;60886;55.034;73.150;2022-11-23T11:58:57;-17.59;69.15
72762;SHT30;60886;55.034;73.150;2022-11-23T12:10:56;-17.65;69.75
72762;SHT30;60886;55.034;73.150;2022-11-23T12:13:33;-17.66;69.67
72762;SHT30;60886;55.034;73.150;2022-11-23T12:21:44;-17.73;70.03
72762;SHT30;60886;55.034;73.150;2022-11-23T12:29:46;-17.86;69.57
72762;SHT30;60886;55.034;73.150;2022-11-23T12:41:19;-18.11;70.12
72762;SHT30;60886;55.034;73.150;2022-11-23T12:52:34;-18.24;70.49
72762;SHT30;60886;55.034;73.150;2022-11-23T12:55:19;-18.24;70.64
72762;SHT30;60886;55.034;73.150;2022-11-23T12:58:11;-18.24;70.53
72762;SHT30;60886;55.034;73.150;2022-11-23T13:12:48;-18.31;70.82
72762;SHT30;60886;55.034;73.150;2022-11-23T13:15:48;-18.26;70.68
72762;SHT30;60886;55.034;73.150;2022-11-23T13:21:41;-18.15;70.62
72762;SHT30;60886;55.034;73.150;2022-11-23T13:24:29;-18.11;70.62
72762;SHT30;60886;55.034;73.150;2022-11-23T13:27:29;-18.14;70.28
72762;SHT30;60886;55.034;73.150;2022-11-23T13:29:57;-18.14;70.46
72762;SHT30;60886;55.034;73.150;2022-11-23T13:32:41;-18.15;70.19
72762;SHT30;60886;55.034;73.150;2022-11-23T13:40:32;-18.22;70.62
72762;SHT30;60886;55.034;73.150;2022-11-23T13:43:29;-18.20;70.48
72762;SHT30;60886;55.034;73.150;2022-11-23T13:46:19;-18.22;70.51
72762;SHT30;60886;55.034;73.150;2022-11-23T13:48:57;-18.20;70.58
72762;SHT30;60886;55.034;73.150;2022-11-23T13:51:32;-18.20;70.32
72762;SHT30;60886;55.034;73.150;2022-11-23T13:54:19;-18.22;70.39
72762;SHT30;60886;55.034;73.150;2022-11-23T13:57:11;-18.33;70.16
72762;SHT30;60886;55.034;73.150;2022-11-23T13:59:38;-18.36;70.48
72762;SHT30;60886;55.034;73.150;2022-11-23T14:04:42;-18.49;70.96
72762;SHT30;60886;55.034;73.150;2022-11-23T14:10:22;-18.46;70.81
72762;SHT30;60886;55.034;73.150;2022-11-23T14:15:24;-18.43;71.18
72762;SHT30;60886;55.034;73.150;2022-11-23T14:21:10;-18.46;70.80
72762;SHT30;60886;55.034;73.150;2022-11-23T14:35:11;-18.48;71.13
72762;SHT30;60886;55.034;73.150;2022-11-23T14:43:34;-18.46;70.87
72762;SHT30;60886;55.034;73.150;2022-11-23T14:46:24;-18.46;70.99
72762;SHT30;60886;55.034;73.150;2022-11-23T14:49:04;-18.42;70.87
72762;SHT30;60886;55.034;73.150;2022-11-23T14:51:33;-18.46;70.31
72762;SHT30;60886;55.034;73.150;2022-11-23T14:54:05;-18.91;65.36
72762;SHT30;60886;55.034;73.150;2022-11-23T14:59:06;-19.59;64.93
72762;SHT30;60886;55.034;73.150;2022-11-23T15:01:51;-19.79;65.46
72762;SHT30;60886;55.034;73.150;2022-11-23T15:04:26;-19.97;65.77
72762;SHT30;60886;55.034;73.150;2022-11-23T15:07:11;-20.10;66.68
72762;SHT30;60886;55.034;73.150;2022-11-23T15:09:50;-20.21;66.71
72762;SHT30;60886;55.034;73.150;2022-11-23T15:12:39;-20.24;67.62
72762;SHT30;60886;55.034;73.150;2022-11-23T15:17:57;-20.20;69.42
72762;SHT30;60886;55.034;73.150;2022-11-23T15:20:34;-20.13;69.71
72762;SHT30;60886;55.034;73.150;2022-11-23T15:23:32;-20.14;68.99
72762;SHT30;60886;55.034;73.150;2022-11-23T15:26:03;-20.10;69.87
72762;SHT30;60886;55.034;73.150;2022-11-23T15:28:40;-20.05;70.02
72762;SHT30;60886;55.034;73.150;2022-11-23T15:31:34;-20.02;68.77
72762;SHT30;60886;55.034;73.150;2022-11-23T15:34:11;-20.05;67.93
72762;SHT30;60886;55.034;73.150;2022-11-23T15:37:02;-19.96;69.00
72762;SHT30;60886;55.034;73.150;2022-11-23T15:39:42;-19.89;69.79
72762;SHT30;60886;55.034;73.150;2022-11-23T15:42:17;-19.72;71.77
72762;SHT30;60886;55.034;73.150;2022-11-23T15:44:46;-19.54;72.15
72762;SHT30;60886;55.034;73.150;2022-11-23T15:47:24;-19.43;71.68
72762;SHT30;60886;55.034;73.150;2022-11-23T15:49:59;-19.30;71.79
72762;SHT30;60886;55.034;73.150;2022-11-23T15:52:28;-19.38;70.21
72762;SHT30;60886;55.034;73.150;2022-11-23T15:55:11;-19.35;70.56
72762;SHT30;60886;55.034;73.150;2022-11-23T15:57:55;-19.45;69.55
72762;SHT30;60886;55.034;73.150;2022-11-23T16:00:26;-19.61;68.31
72762;SHT30;60886;55.034;73.150;2022-11-23T16:08:47;-19.50;71.74
72762;SHT30;60886;55.034;73.150;2022-11-23T16:13:47;-19.38;71.90
72762;SHT30;60886;55.034;73.150;2022-11-23T16:16:23;-19.27;71.80
72762;SHT30;60886;55.034;73.150;2022-11-23T16:19:18;-19.25;71.65
72762;SHT30;60886;55.034;73.150;2022-11-23T16:21:46;-19.31;70.63
72762;SHT30;60886;55.034;73.150;2022-11-23T16:24:23;-19.35;70.24
72762;SHT30;60886;55.034;73.150;2022-11-23T16:26:51;-19.30;71.14
72762;SHT30;60886;55.034;73.150;2022-11-23T16:29:30;-19.31;71.13
72762;SHT30;60886;55.034;73.150;2022-11-23T16:32:02;-19.30;71.32
72762;SHT30;60886;55.034;73.150;2022-11-23T16:34:32;-19.31;71.26
72762;SHT30;60886;55.034;73.150;2022-11-23T16:37:00;-19.45;67.79
72762;SHT30;60886;55.034;73.150;2022-11-23T16:39:28;-19.78;66.52
72762;SHT30;60886;55.034;73.150;2022-11-23T16:41:55;-20.00;66.29
72762;SHT30;60886;55.034;73.150;2022-11-23T16:44:21;-20.24;66.08
72762;SHT30;60886;55.034;73.150;2022-11-23T16:46:52;-20.47;65.98
72762;SHT30;60886;55.034;73.150;2022-11-23T16:49:21;-20.61;66.75
72762;SHT30;60886;55.034;73.150;2022-11-23T16:51:50;-20.61;68.17
72762;SHT30;60886;55.034;73.150;2022-11-23T16:54:19;-20.57;68.05
72762;SHT30;60886;55.034;73.150;2022-11-23T16:56:46;-20.58;67.70
72762;SHT30;60886;55.034;73.150;2022-11-23T16:59:23;-20.61;67.41
72762;SHT30;60886;55.034;73.150;2022-11-23T17:01:51;-20.61;67.95
72762;SHT30;60886;55.034;73.150;2022-11-23T17:04:19;-20.57;68.60
72762;SHT30;60886;55.034;73.150;2022-11-23T17:06:48;-20.52;68.56
72762;SHT30;60886;55.034;73.150;2022-11-23T17:09:15;-20.51;68.84
72762;SHT30;60886;55.034;73.150;2022-11-23T17:11:44;-20.54;68.99
72762;SHT30;60886;55.034;73.150;2022-11-23T17:14:12;-20.45;69.16
72762;SHT30;60886;55.034;73.150;2022-11-23T17:16:40;-20.42;69.72
72762;SHT30;60886;55.034;73.150;2022-11-23T17:19:18;-20.44;70.26
72762;SHT30;60886;55.034;73.150;2022-11-23T17:21:45;-20.42;70.09
72762;SHT30;60886;55.034;73.150;2022-11-23T17:24:12;-20.44;70.08
72762;SHT30;60886;55.034;73.150;2022-11-23T17:26:46;-20.41;69.86
72762;SHT30;60886;55.034;73.150;2022-11-23T17:29:15;-20.41;70.36
72762;SHT30;60886;55.034;73.150;2022-11-23T17:31:45;-20.40;70.82
72762;SHT30;60886;55.034;73.150;2022-11-23T17:34:12;-20.34;70.95
72762;SHT30;60886;55.034;73.150;2022-11-23T17:36:43;-20.26;71.27
72762;SHT30;60886;55.034;73.150;2022-11-23T17:39:25;-20.28;69.78
72762;SHT30;60886;55.034;73.150;2022-11-23T17:41:53;-20.33;69.50
72762;SHT30;60886;55.034;73.150;2022-11-23T17:44:22;-20.30;70.17
72762;SHT30;60886;55.034;73.150;2022-11-23T17:46:50;-20.33;70.42
72762;SHT30;60886;55.034;73.150;2022-11-23T17:49:17;-20.33;70.35
72762;SHT30;60886;55.034;73.150;2022-11-23T17:52:05;-20.30;70.05
72762;SHT30;60886;55.034;73.150;2022-11-23T17:54:31;-20.20;70.87
72762;SHT30;60886;55.034;73.150;2022-11-23T17:57:15;-20.13;71.40